메인 페이지
METAR-TAF:

METAR-TAF

공항 :

Kullu / Manali, 인도

위도: 31-52-36N, 경도: 77-09-16E, 고도: 1089m

METAR: 누락

시각: 04:09 (22:39 UTC)

예보

예보는 17 시간 39분 전, 05:00시(UTC)에 발표되었습니다.
예보 대상 시간: 28일 06시부터 28일 15시까지 (UTC)
kt
시정: 6000m
고도 3000ft 상공 구름 조금
고도 8000ft 상공 구름 보통
일시적
28일 09시부터 28일 12시까지 (UTC)
고도 3500ft 상공 구름 조금, 적란운.

TAF: VIBR 280500Z 2806/2815 00000KT 6000 FEW030 SCT080 TEMPO 2809/2812 FEW035CB

4,000개 이상의 공항 관측 자료 및 예보 (METAR 및 TAF 보고).

지도상에서 검색 가능한 기상관측소가 노란 점과 빨간 점으로 표시되어 있습니다.

기상관측소 명을 보려면 표시 위로 마우스를 이동하세요.

날씨 관측과 예보를 보려면 클릭하세요.

지도 변경 : 확대하려면 엑스 표시가 있는 녹색 버튼, 축소하려면 빼기 표시가 있는 녹색 버튼, 다음 페이지의 지도를 보려면 녹색 화살표를 클릭하세요.


METAR-TAF: